sensor_id;sensor_type;location;lat;lon;timestamp;pressure;altitude;pressure_sealevel;temperature;humidity
7180;BME280;3631;42.152;24.756;2022-12-07T00:01:26;99553.81;;;7.39;100.00
7180;BME280;3631;42.152;24.756;2022-12-07T00:03:55;99558.09;;;7.40;100.00
7180;BME280;3631;42.152;24.756;2022-12-07T00:06:26;99552.97;;;7.38;100.00
7180;BME280;3631;42.152;24.756;2022-12-07T00:08:53;99558.38;;;7.21;100.00
7180;BME280;3631;42.152;24.756;2022-12-07T00:11:21;99552.38;;;7.19;100.00
7180;BME280;3631;42.152;24.756;2022-12-07T00:13:53;99566.91;;;7.25;100.00
7180;BME280;3631;42.152;24.756;2022-12-07T00:16:22;99559.13;;;7.28;100.00
7180;BME280;3631;42.152;24.756;2022-12-07T00:18:49;99548.88;;;7.23;100.00
7180;BME280;3631;42.152;24.756;2022-12-07T00:21:18;99555.69;;;7.29;100.00
7180;BME280;3631;42.152;24.756;2022-12-07T00:23:46;99557.38;;;7.32;100.00
7180;BME280;3631;42.152;24.756;2022-12-07T00:26:16;99543.69;;;7.23;100.00
7180;BME280;3631;42.152;24.756;2022-12-07T00:28:45;99555.88;;;7.15;100.00
7180;BME280;3631;42.152;24.756;2022-12-07T00:31:15;99559.38;;;7.11;100.00
7180;BME280;3631;42.152;24.756;2022-12-07T00:33:42;99555.03;;;7.15;100.00
7180;BME280;3631;42.152;24.756;2022-12-07T00:36:11;99537.13;;;7.03;100.00
7180;BME280;3631;42.152;24.756;2022-12-07T00:38:39;99561.06;;;7.12;100.00
7180;BME280;3631;42.152;24.756;2022-12-07T00:41:09;99563.00;;;6.98;100.00
7180;BME280;3631;42.152;24.756;2022-12-07T00:43:37;99554.34;;;7.01;100.00
7180;BME280;3631;42.152;24.756;2022-12-07T00:46:05;99564.66;;;7.02;100.00
7180;BME280;3631;42.152;24.756;2022-12-07T00:48:33;99552.63;;;7.01;100.00
7180;BME280;3631;42.152;24.756;2022-12-07T00:51:00;99550.19;;;6.92;100.00
7180;BME280;3631;42.152;24.756;2022-12-07T00:53:28;99547.59;;;6.93;100.00
7180;BME280;3631;42.152;24.756;2022-12-07T00:55:55;99546.69;;;6.96;100.00
7180;BME280;3631;42.152;24.756;2022-12-07T00:58:23;99549.25;;;6.99;100.00
7180;BME280;3631;42.152;24.756;2022-12-07T01:00:50;99547.69;;;6.86;100.00
7180;BME280;3631;42.152;24.756;2022-12-07T01:03:17;99535.69;;;6.82;100.00
7180;BME280;3631;42.152;24.756;2022-12-07T01:05:52;99546.66;;;6.99;100.00
7180;BME280;3631;42.152;24.756;2022-12-07T01:08:21;99538.00;;;7.00;100.00
7180;BME280;3631;42.152;24.756;2022-12-07T01:10:48;99539.84;;;6.93;100.00
7180;BME280;3631;42.152;24.756;2022-12-07T01:13:15;99545.16;;;6.81;100.00
7180;BME280;3631;42.152;24.756;2022-12-07T01:15:43;99538.09;;;6.96;100.00
7180;BME280;3631;42.152;24.756;2022-12-07T01:18:11;99529.50;;;6.95;100.00
7180;BME280;3631;42.152;24.756;2022-12-07T01:20:38;99546.72;;;6.93;100.00
7180;BME280;3631;42.152;24.756;2022-12-07T01:23:06;99540.13;;;6.74;100.00
7180;BME280;3631;42.152;24.756;2022-12-07T01:25:33;99531.53;;;6.72;100.00
7180;BME280;3631;42.152;24.756;2022-12-07T01:28:00;99534.13;;;6.72;100.00
7180;BME280;3631;42.152;24.756;2022-12-07T01:30:27;99535.72;;;6.79;100.00
7180;BME280;3631;42.152;24.756;2022-12-07T01:32:54;99526.50;;;6.64;100.00
7180;BME280;3631;42.152;24.756;2022-12-07T01:35:21;99527.34;;;6.63;100.00
7180;BME280;3631;42.152;24.756;2022-12-07T01:37:48;99520.47;;;6.64;100.00
7180;BME280;3631;42.152;24.756;2022-12-07T01:40:17;99524.81;;;6.59;100.00
7180;BME280;3631;42.152;24.756;2022-12-07T01:42:44;99515.50;;;6.50;100.00
7180;BME280;3631;42.152;24.756;2022-12-07T01:45:36;99509.50;;;6.46;100.00
7180;BME280;3631;42.152;24.756;2022-12-07T01:48:04;99507.78;;;6.48;100.00
7180;BME280;3631;42.152;24.756;2022-12-07T01:50:32;99502.47;;;6.59;100.00
7180;BME280;3631;42.152;24.756;2022-12-07T01:53:02;99505.16;;;6.51;100.00
7180;BME280;3631;42.152;24.756;2022-12-07T01:55:32;99501.88;;;6.37;100.00
7180;BME280;3631;42.152;24.756;2022-12-07T01:58:01;99513.97;;;6.32;100.00
7180;BME280;3631;42.152;24.756;2022-12-07T02:00:27;99515.69;;;6.33;100.00
7180;BME280;3631;42.152;24.756;2022-12-07T02:03:01;99512.19;;;6.39;100.00
7180;BME280;3631;42.152;24.756;2022-12-07T02:05:31;99508.03;;;6.26;100.00
7180;BME280;3631;42.152;24.756;2022-12-07T02:07:59;99506.28;;;6.29;100.00
7180;BME280;3631;42.152;24.756;2022-12-07T02:10:28;99501.16;;;6.28;100.00
7180;BME280;3631;42.152;24.756;2022-12-07T02:12:58;99511.34;;;6.35;100.00
7180;BME280;3631;42.152;24.756;2022-12-07T02:15:32;99507.06;;;6.34;100.00
7180;BME280;3631;42.152;24.756;2022-12-07T02:18:07;99500.13;;;6.42;100.00
7180;BME280;3631;42.152;24.756;2022-12-07T02:20:39;99495.75;;;6.47;100.00
7180;BME280;3631;42.152;24.756;2022-12-07T02:23:37;99494.91;;;6.45;100.00
7180;BME280;3631;42.152;24.756;2022-12-07T02:29:27;99483.53;;;6.63;100.00
7180;BME280;3631;42.152;24.756;2022-12-07T02:32:02;99470.53;;;6.68;100.00
7180;BME280;3631;42.152;24.756;2022-12-07T02:34:38;99472.34;;;6.64;100.00
7180;BME280;3631;42.152;24.756;2022-12-07T02:37:12;99475.09;;;6.50;100.00
7180;BME280;3631;42.152;24.756;2022-12-07T02:39:47;99483.72;;;6.48;100.00
7180;BME280;3631;42.152;24.756;2022-12-07T02:42:19;99471.66;;;6.50;100.00
7180;BME280;3631;42.152;24.756;2022-12-07T02:44:50;99485.38;;;6.53;100.00
7180;BME280;3631;42.152;24.756;2022-12-07T02:47:19;99482.72;;;6.58;100.00
7180;BME280;3631;42.152;24.756;2022-12-07T02:49:49;99480.06;;;6.64;100.00
7180;BME280;3631;42.152;24.756;2022-12-07T02:52:17;99477.47;;;6.66;100.00
7180;BME280;3631;42.152;24.756;2022-12-07T02:54:44;99473.03;;;6.75;100.00
7180;BME280;3631;42.152;24.756;2022-12-07T02:57:21;99457.72;;;6.65;100.00
7180;BME280;3631;42.152;24.756;2022-12-07T03:00:00;99462.97;;;6.55;100.00
7180;BME280;3631;42.152;24.756;2022-12-07T03:02:36;99459.50;;;6.60;100.00
7180;BME280;3631;42.152;24.756;2022-12-07T03:05:30;99456.94;;;6.58;100.00
7180;BME280;3631;42.152;24.756;2022-12-07T03:08:02;99456.13;;;6.54;100.00
7180;BME280;3631;42.152;24.756;2022-12-07T03:10:35;99453.56;;;6.54;100.00
7180;BME280;3631;42.152;24.756;2022-12-07T03:13:11;99455.91;;;6.70;100.00
7180;BME280;3631;42.152;24.756;2022-12-07T03:15:44;99464.56;;;6.66;100.00
7180;BME280;3631;42.152;24.756;2022-12-07T03:18:16;99468.88;;;6.65;100.00
7180;BME280;3631;42.152;24.756;2022-12-07T03:20:47;99476.69;;;6.59;100.00
7180;BME280;3631;42.152;24.756;2022-12-07T03:23:16;99474.84;;;6.69;100.00
7180;BME280;3631;42.152;24.756;2022-12-07T03:25:46;99455.22;;;6.55;100.00
7180;BME280;3631;42.152;24.756;2022-12-07T03:28:17;99479.22;;;6.64;100.00
7180;BME280;3631;42.152;24.756;2022-12-07T03:30:50;99471.50;;;6.62;100.00
7180;BME280;3631;42.152;24.756;2022-12-07T03:33:22;99465.38;;;6.68;100.00
7180;BME280;3631;42.152;24.756;2022-12-07T03:35:57;99472.91;;;6.83;100.00
7180;BME280;3631;42.152;24.756;2022-12-07T03:38:30;99476.25;;;6.89;100.00
7180;BME280;3631;42.152;24.756;2022-12-07T03:41:01;99470.19;;;6.93;100.00
7180;BME280;3631;42.152;24.756;2022-12-07T03:43:31;99469.19;;;7.02;100.00
7180;BME280;3631;42.152;24.756;2022-12-07T03:46:06;99471.84;;;6.99;100.00
7180;BME280;3631;42.152;24.756;2022-12-07T03:48:44;99470.06;;;7.01;100.00
7180;BME280;3631;42.152;24.756;2022-12-07T03:51:17;99473.41;;;7.08;100.00
7180;BME280;3631;42.152;24.756;2022-12-07T03:53:53;99467.28;;;7.13;100.00
7180;BME280;3631;42.152;24.756;2022-12-07T03:56:22;99465.63;;;7.11;100.00
7180;BME280;3631;42.152;24.756;2022-12-07T03:58:51;99463.84;;;7.13;100.00
7180;BME280;3631;42.152;24.756;2022-12-07T04:01:20;99467.41;;;7.07;100.00
7180;BME280;3631;42.152;24.756;2022-12-07T04:03:47;99459.69;;;7.04;100.00
7180;BME280;3631;42.152;24.756;2022-12-07T04:06:14;99454.53;;;7.04;100.00
7180;BME280;3631;42.152;24.756;2022-12-07T04:08:41;99454.69;;;6.93;100.00
7180;BME280;3631;42.152;24.756;2022-12-07T04:11:08;99461.75;;;6.81;100.00
7180;BME280;3631;42.152;24.756;2022-12-07T04:13:34;99454.97;;;6.75;100.00
7180;BME280;3631;42.152;24.756;2022-12-07T04:16:23;99461.78;;;6.78;100.00
7180;BME280;3631;42.152;24.756;2022-12-07T04:18:50;99460.03;;;6.81;100.00
7180;BME280;3631;42.152;24.756;2022-12-07T04:21:16;99456.56;;;6.84;100.00
7180;BME280;3631;42.152;24.756;2022-12-07T04:23:43;99449.69;;;6.83;100.00
7180;BME280;3631;42.152;24.756;2022-12-07T04:26:10;99448.88;;;6.79;100.00
7180;BME280;3631;42.152;24.756;2022-12-07T04:28:37;99448.72;;;6.90;100.00
7180;BME280;3631;42.152;24.756;2022-12-07T04:31:04;99442.75;;;6.88;100.00
7180;BME280;3631;42.152;24.756;2022-12-07T04:33:32;99453.19;;;6.79;100.00
7180;BME280;3631;42.152;24.756;2022-12-07T04:35:59;99451.47;;;6.78;100.00
7180;BME280;3631;42.152;24.756;2022-12-07T04:38:26;99458.31;;;6.82;100.00
7180;BME280;3631;42.152;24.756;2022-12-07T04:40:53;99442.84;;;6.80;100.00
7180;BME280;3631;42.152;24.756;2022-12-07T04:43:20;99451.44;;;6.82;100.00
7180;BME280;3631;42.152;24.756;2022-12-07T04:45:47;99454.09;;;6.76;100.00
7180;BME280;3631;42.152;24.756;2022-12-07T04:48:14;99454.97;;;6.77;100.00
7180;BME280;3631;42.152;24.756;2022-12-07T04:50:43;99450.56;;;6.82;100.00
7180;BME280;3631;42.152;24.756;2022-12-07T04:53:10;99445.66;;;6.65;100.00
7180;BME280;3631;42.152;24.756;2022-12-07T04:55:36;99444.97;;;6.52;100.00
7180;BME280;3631;42.152;24.756;2022-12-07T04:58:03;99448.41;;;6.54;100.00
7180;BME280;3631;42.152;24.756;2022-12-07T05:00:30;99449.97;;;6.65;100.00
7180;BME280;3631;42.152;24.756;2022-12-07T05:02:57;99448.47;;;6.48;100.00
7180;BME280;3631;42.152;24.756;2022-12-07T05:05:24;99456.31;;;6.39;100.00
7180;BME280;3631;42.152;24.756;2022-12-07T05:07:53;99459.19;;;6.16;100.00
7180;BME280;3631;42.152;24.756;2022-12-07T05:10:20;99463.31;;;6.31;100.00
7180;BME280;3631;42.152;24.756;2022-12-07T05:12:49;99464.91;;;6.40;100.00
7180;BME280;3631;42.152;24.756;2022-12-07T05:15:24;99439.44;;;6.15;100.00
7180;BME280;3631;42.152;24.756;2022-12-07T05:17:55;99462.38;;;6.37;100.00
7180;BME280;3631;42.152;24.756;2022-12-07T05:20:22;99456.50;;;6.26;100.00
7180;BME280;3631;42.152;24.756;2022-12-07T05:22:52;99455.75;;;6.16;100.00
7180;BME280;3631;42.152;24.756;2022-12-07T05:25:19;99460.03;;;6.17;100.00
7180;BME280;3631;42.152;24.756;2022-12-07T05:27:46;99453.25;;;6.10;100.00
7180;BME280;3631;42.152;24.756;2022-12-07T05:30:14;99462.59;;;6.20;100.00
7180;BME280;3631;42.152;24.756;2022-12-07T05:32:41;99458.31;;;6.19;100.00
7180;BME280;3631;42.152;24.756;2022-12-07T05:35:08;99461.69;;;6.23;100.00
7180;BME280;3631;42.152;24.756;2022-12-07T05:37:35;99467.81;;;6.14;100.00
7180;BME280;3631;42.152;24.756;2022-12-07T05:40:04;99462.59;;;6.20;100.00
7180;BME280;3631;42.152;24.756;2022-12-07T05:42:31;99462.75;;;6.08;100.00
7180;BME280;3631;42.152;24.756;2022-12-07T05:44:57;99460.09;;;6.11;100.00
7180;BME280;3631;42.152;24.756;2022-12-07T05:47:24;99455.72;;;6.19;100.00
7180;BME280;3631;42.152;24.756;2022-12-07T05:49:51;99458.19;;;6.28;100.00
7180;BME280;3631;42.152;24.756;2022-12-07T05:52:18;99464.97;;;6.34;100.00
7180;BME280;3631;42.152;24.756;2022-12-07T05:54:45;99460.63;;;6.39;100.00
7180;BME280;3631;42.152;24.756;2022-12-07T05:57:13;99462.38;;;6.35;100.00
7180;BME280;3631;42.152;24.756;2022-12-07T05:59:40;99460.78;;;6.25;100.00
7180;BME280;3631;42.152;24.756;2022-12-07T06:02:09;99472.63;;;6.41;100.00
7180;BME280;3631;42.152;24.756;2022-12-07T06:04:37;99476.81;;;6.48;100.00
7180;BME280;3631;42.152;24.756;2022-12-07T06:07:05;99470.97;;;6.37;100.00
7180;BME280;3631;42.152;24.756;2022-12-07T06:09:33;99464.75;;;6.52;100.00
7180;BME280;3631;42.152;24.756;2022-12-07T06:12:01;99471.63;;;6.51;100.00
7180;BME280;3631;42.152;24.756;2022-12-07T06:14:46;99473.19;;;6.65;100.00
7180;BME280;3631;42.152;24.756;2022-12-07T06:17:14;99470.63;;;6.62;100.00
7180;BME280;3631;42.152;24.756;2022-12-07T06:19:41;99446.78;;;6.44;100.00
7180;BME280;3631;42.152;24.756;2022-12-07T06:22:08;99468.78;;;6.73;100.00
7180;BME280;3631;42.152;24.756;2022-12-07T06:24:37;99468.03;;;6.63;100.00
7180;BME280;3631;42.152;24.756;2022-12-07T06:27:04;99472.34;;;6.63;100.00
7180;BME280;3631;42.152;24.756;2022-12-07T06:29:31;99469.09;;;6.48;100.00
7180;BME280;3631;42.152;24.756;2022-12-07T06:32:00;99474.91;;;6.64;100.00
7180;BME280;3631;42.152;24.756;2022-12-07T06:34:27;99482.63;;;6.66;100.00
7180;BME280;3631;42.152;24.756;2022-12-07T06:36:54;99468.94;;;6.61;100.00
7180;BME280;3631;42.152;24.756;2022-12-07T06:39:23;99485.00;;;6.78;100.00
7180;BME280;3631;42.152;24.756;2022-12-07T06:41:50;99487.53;;;6.84;100.00
7180;BME280;3631;42.152;24.756;2022-12-07T06:44:19;99489.94;;;6.95;100.00
7180;BME280;3631;42.152;24.756;2022-12-07T06:46:47;99489.94;;;6.95;100.00
7180;BME280;3631;42.152;24.756;2022-12-07T06:49:15;99489.06;;;6.96;100.00
7180;BME280;3631;42.152;24.756;2022-12-07T06:51:43;99485.34;;;7.13;100.00
7180;BME280;3631;42.152;24.756;2022-12-07T06:54:10;99482.78;;;7.12;100.00
7180;BME280;3631;42.152;24.756;2022-12-07T06:56:37;99485.16;;;7.25;100.00
7180;BME280;3631;42.152;24.756;2022-12-07T06:59:05;99479.28;;;7.16;100.00
7180;BME280;3631;42.152;24.756;2022-12-07T07:01:33;99489.25;;;7.40;100.00
7180;BME280;3631;42.152;24.756;2022-12-07T07:04:01;99487.56;;;7.36;100.00
7180;BME280;3631;42.152;24.756;2022-12-07T07:06:29;99488.38;;;7.41;100.00
7180;BME280;3631;42.152;24.756;2022-12-07T07:08:56;99483.88;;;7.52;100.00
7180;BME280;3631;42.152;24.756;2022-12-07T07:11:23;99480.97;;;7.71;100.00
7180;BME280;3631;42.152;24.756;2022-12-07T07:13:50;99481.94;;;7.63;100.00
7180;BME280;3631;42.152;24.756;2022-12-07T07:16:17;99465.59;;;7.63;100.00
7180;BME280;3631;42.152;24.756;2022-12-07T07:18:44;99479.78;;;7.88;100.00
7180;BME280;3631;42.152;24.756;2022-12-07T07:21:11;99484.09;;;7.89;100.00
7180;BME280;3631;42.152;24.756;2022-12-07T07:23:39;99486.41;;;8.01;100.00
7180;BME280;3631;42.152;24.756;2022-12-07T07:26:06;99492.31;;;8.10;100.00
7180;BME280;3631;42.152;24.756;2022-12-07T07:28:33;99478.34;;;8.18;100.00
7180;BME280;3631;42.152;24.756;2022-12-07T07:31:00;99479.84;;;8.30;100.00
7180;BME280;3631;42.152;24.756;2022-12-07T07:33:27;99479.66;;;8.39;100.00
7180;BME280;3631;42.152;24.756;2022-12-07T07:35:53;99477.84;;;8.46;100.00
7180;BME280;3631;42.152;24.756;2022-12-07T07:38:20;99486.16;;;8.58;100.00
7180;BME280;3631;42.152;24.756;2022-12-07T07:40:49;99492.97;;;8.62;100.00
7180;BME280;3631;42.152;24.756;2022-12-07T07:43:15;99493.84;;;8.63;100.00
7180;BME280;3631;42.152;24.756;2022-12-07T07:45:44;99497.31;;;8.62;100.00
7180;BME280;3631;42.152;24.756;2022-12-07T07:48:10;99502.28;;;8.71;100.00
7180;BME280;3631;42.152;24.756;2022-12-07T07:50:37;99499.72;;;8.69;100.00
7180;BME280;3631;42.152;24.756;2022-12-07T07:53:04;99504.88;;;8.69;100.00
7180;BME280;3631;42.152;24.756;2022-12-07T07:55:31;99499.44;;;8.82;100.00
7180;BME280;3631;42.152;24.756;2022-12-07T07:57:59;99504.31;;;8.97;100.00
7180;BME280;3631;42.152;24.756;2022-12-07T08:00:26;99502.19;;;9.14;100.00
7180;BME280;3631;42.152;24.756;2022-12-07T08:02:53;99502.88;;;9.21;100.00
7180;BME280;3631;42.152;24.756;2022-12-07T08:05:20;99500.41;;;9.16;100.00
7180;BME280;3631;42.152;24.756;2022-12-07T08:07:47;99496.91;;;9.17;100.00
7180;BME280;3631;42.152;24.756;2022-12-07T08:10:14;99495.31;;;9.13;100.00
7180;BME280;3631;42.152;24.756;2022-12-07T08:12:42;99499.66;;;9.11;100.00
7180;BME280;3631;42.152;24.756;2022-12-07T08:15:25;99499.75;;;9.06;100.00
7180;BME280;3631;42.152;24.756;2022-12-07T08:17:52;99496.09;;;9.15;100.00
7180;BME280;3631;42.152;24.756;2022-12-07T08:20:19;99506.00;;;9.35;100.00
7180;BME280;3631;42.152;24.756;2022-12-07T08:22:46;99507.56;;;9.42;100.00
7180;BME280;3631;42.152;24.756;2022-12-07T08:25:13;99499.69;;;9.46;100.00
7180;BME280;3631;42.152;24.756;2022-12-07T08:27:40;99498.88;;;9.44;100.00
7180;BME280;3631;42.152;24.756;2022-12-07T08:30:07;99493.16;;;9.66;100.00
7180;BME280;3631;42.152;24.756;2022-12-07T08:32:36;99492.81;;;9.79;100.00
7180;BME280;3631;42.152;24.756;2022-12-07T08:35:03;99500.03;;;9.99;100.00
7180;BME280;3631;42.152;24.756;2022-12-07T08:37:31;99496.91;;;10.21;100.00
7180;BME280;3631;42.152;24.756;2022-12-07T08:39:58;99502.38;;;10.41;100.00
7180;BME280;3631;42.152;24.756;2022-12-07T08:42:24;99489.97;;;10.50;100.00
7180;BME280;3631;42.152;24.756;2022-12-07T08:44:55;99492.38;;;10.58;100.00
7180;BME280;3631;42.152;24.756;2022-12-07T08:47:23;99497.06;;;10.45;100.00
7180;BME280;3631;42.152;24.756;2022-12-07T08:49:52;99479.41;;;10.58;100.00
7180;BME280;3631;42.152;24.756;2022-12-07T08:52:20;99479.28;;;10.61;100.00
7180;BME280;3631;42.152;24.756;2022-12-07T08:54:47;99475.78;;;10.62;100.00
7180;BME280;3631;42.152;24.756;2022-12-07T08:57:14;99481.88;;;10.61;100.00
7180;BME280;3631;42.152;24.756;2022-12-07T08:59:41;99482.56;;;10.68;100.00
7180;BME280;3631;42.152;24.756;2022-12-07T09:02:08;99484.84;;;10.78;100.00
7180;BME280;3631;42.152;24.756;2022-12-07T09:04:35;99471.28;;;10.69;100.00
7180;BME280;3631;42.152;24.756;2022-12-07T09:07:03;99470.97;;;10.79;100.00
7180;BME280;3631;42.152;24.756;2022-12-07T09:09:30;99472.84;;;10.74;100.00
7180;BME280;3631;42.152;24.756;2022-12-07T09:11:57;99460.25;;;10.90;100.00
7180;BME280;3631;42.152;24.756;2022-12-07T09:14:24;99455.81;;;10.94;100.00
7180;BME280;3631;42.152;24.756;2022-12-07T09:16:51;99444.38;;;10.99;100.00
7180;BME280;3631;42.152;24.756;2022-12-07T09:19:18;99446.94;;;11.01;100.00
7180;BME280;3631;42.152;24.756;2022-12-07T09:21:45;99441.09;;;10.94;100.00
7180;BME280;3631;42.152;24.756;2022-12-07T09:24:13;99432.03;;;10.79;100.00
7180;BME280;3631;42.152;24.756;2022-12-07T09:26:40;99438.03;;;10.81;100.00
7180;BME280;3631;42.152;24.756;2022-12-07T09:29:07;99430.94;;;10.86;100.00
7180;BME280;3631;42.152;24.756;2022-12-07T09:31:36;99435.28;;;10.86;100.00
7180;BME280;3631;42.152;24.756;2022-12-07T09:34:03;99423.13;;;10.86;100.00
7180;BME280;3631;42.152;24.756;2022-12-07T09:36:31;99423.66;;;10.98;100.00
7180;BME280;3631;42.152;24.756;2022-12-07T09:38:58;99409.72;;;11.00;100.00
7180;BME280;3631;42.152;24.756;2022-12-07T09:41:27;99421.81;;;11.01;100.00
7180;BME280;3631;42.152;24.756;2022-12-07T09:44:02;99409.09;;;10.94;100.00
7180;BME280;3631;42.152;24.756;2022-12-07T09:46:34;99408.97;;;10.97;100.00
7180;BME280;3631;42.152;24.756;2022-12-07T09:49:03;99403.41;;;11.07;100.00
7180;BME280;3631;42.152;24.756;2022-12-07T09:51:31;99396.97;;;11.19;100.00
7180;BME280;3631;42.152;24.756;2022-12-07T09:53:59;99394.38;;;11.19;100.00
7180;BME280;3631;42.152;24.756;2022-12-07T09:56:30;99399.56;;;11.45;100.00
7180;BME280;3631;42.152;24.756;2022-12-07T09:59:00;99396.84;;;11.48;100.00
7180;BME280;3631;42.152;24.756;2022-12-07T10:01:29;99399.81;;;11.38;100.00
7180;BME280;3631;42.152;24.756;2022-12-07T10:04:02;99397.88;;;11.18;100.00
7180;BME280;3631;42.152;24.756;2022-12-07T10:06:33;99393.59;;;11.17;100.00
7180;BME280;3631;42.152;24.756;2022-12-07T10:09:00;99391.69;;;11.22;100.00
7180;BME280;3631;42.152;24.756;2022-12-07T10:11:29;99390.03;;;11.19;100.00
7180;BME280;3631;42.152;24.756;2022-12-07T10:14:10;99394.78;;;11.33;100.00
7180;BME280;3631;42.152;24.756;2022-12-07T10:16:40;99385.59;;;11.23;100.00
7180;BME280;3631;42.152;24.756;2022-12-07T10:19:23;99360.41;;;11.25;100.00
7180;BME280;3631;42.152;24.756;2022-12-07T10:22:04;99383.00;;;11.48;100.00
7180;BME280;3631;42.152;24.756;2022-12-07T10:24:31;99377.88;;;11.46;100.00
7180;BME280;3631;42.152;24.756;2022-12-07T10:27:00;99373.56;;;11.45;100.00
7180;BME280;3631;42.152;24.756;2022-12-07T10:29:29;99363.53;;;11.35;100.00
7180;BME280;3631;42.152;24.756;2022-12-07T10:31:59;99363.16;;;11.45;100.00
7180;BME280;3631;42.152;24.756;2022-12-07T10:34:27;99354.91;;;11.59;100.00
7180;BME280;3631;42.152;24.756;2022-12-07T10:37:14;99355.38;;;11.70;100.00
7180;BME280;3631;42.152;24.756;2022-12-07T10:39:43;99355.66;;;11.86;100.00
7180;BME280;3631;42.152;24.756;2022-12-07T10:42:22;99361.56;;;11.91;100.00
7180;BME280;3631;42.152;24.756;2022-12-07T10:47:36;99359.97;;;11.87;100.00
7180;BME280;3631;42.152;24.756;2022-12-07T10:50:29;99365.97;;;11.89;100.00
7180;BME280;3631;42.152;24.756;2022-12-07T10:53:21;99364.41;;;11.85;100.00
7180;BME280;3631;42.152;24.756;2022-12-07T10:56:13;99363.22;;;11.69;100.00
7180;BME280;3631;42.152;24.756;2022-12-07T10:58:58;99362.25;;;11.71;100.00
7180;BME280;3631;42.152;24.756;2022-12-07T11:01:32;99351.84;;;11.71;100.00
7180;BME280;3631;42.152;24.756;2022-12-07T11:04:21;99351.72;;;11.76;100.00
7180;BME280;3631;42.152;24.756;2022-12-07T11:06:55;99334.91;;;11.61;100.00
7180;BME280;3631;42.152;24.756;2022-12-07T11:09:39;99338.13;;;11.68;100.00
7180;BME280;3631;42.152;24.756;2022-12-07T11:12:15;99334.09;;;11.59;100.00
7180;BME280;3631;42.152;24.756;2022-12-07T11:14:55;99334.34;;;11.51;100.00
7180;BME280;3631;42.152;24.756;2022-12-07T11:17:28;99330.84;;;11.52;100.00
7180;BME280;3631;42.152;24.756;2022-12-07T11:20:02;99327.69;;;11.44;100.00
7180;BME280;3631;42.152;24.756;2022-12-07T11:22:39;99320.44;;;11.52;100.00
7180;BME280;3631;42.152;24.756;2022-12-07T11:25:21;99325.56;;;11.55;100.00
7180;BME280;3631;42.152;24.756;2022-12-07T11:27:59;99322.44;;;11.46;100.00
7180;BME280;3631;42.152;24.756;2022-12-07T11:30:34;99299.56;;;11.31;100.00
7180;BME280;3631;42.152;24.756;2022-12-07T11:33:15;99312.31;;;11.38;100.00
7180;BME280;3631;42.152;24.756;2022-12-07T11:35:50;99309.06;;;11.32;100.00
7180;BME280;3631;42.152;24.756;2022-12-07T11:38:23;99306.91;;;11.44;100.00
7180;BME280;3631;42.152;24.756;2022-12-07T11:40:54;99301.75;;;11.43;100.00
7180;BME280;3631;42.152;24.756;2022-12-07T11:43:56;99300.94;;;11.41;100.00
7180;BME280;3631;42.152;24.756;2022-12-07T11:46:29;99294.97;;;11.39;100.00
7180;BME280;3631;42.152;24.756;2022-12-07T11:49:07;99295.25;;;11.54;100.00
7180;BME280;3631;42.152;24.756;2022-12-07T11:51:38;99295.53;;;11.47;100.00
7180;BME280;3631;42.152;24.756;2022-12-07T11:54:13;99289.72;;;11.40;100.00
7180;BME280;3631;42.152;24.756;2022-12-07T11:56:41;99287.06;;;11.42;100.00
7180;BME280;3631;42.152;24.756;2022-12-07T11:59:12;99276.22;;;11.54;100.00
7180;BME280;3631;42.152;24.756;2022-12-07T12:01:53;99282.50;;;11.48;100.00
7180;BME280;3631;42.152;24.756;2022-12-07T12:04:31;99280.47;;;11.56;100.00
7180;BME280;3631;42.152;24.756;2022-12-07T12:07:00;99265.88;;;11.52;100.00
7180;BME280;3631;42.152;24.756;2022-12-07T12:09:30;99275.75;;;11.43;100.00
7180;BME280;3631;42.152;24.756;2022-12-07T12:12:21;99274.91;;;11.42;100.00
7180;BME280;3631;42.152;24.756;2022-12-07T12:15:03;99266.00;;;11.49;100.00
7180;BME280;3631;42.152;24.756;2022-12-07T12:17:50;99255.56;;;11.51;100.00
7180;BME280;3631;42.152;24.756;2022-12-07T12:20:23;99277.56;;;11.64;100.00
7180;BME280;3631;42.152;24.756;2022-12-07T12:22:58;99267.06;;;11.67;100.00
7180;BME280;3631;42.152;24.756;2022-12-07T12:25:28;99252.69;;;11.82;100.00
7180;BME280;3631;42.152;24.756;2022-12-07T12:27:58;99273.31;;;11.86;100.00
7180;BME280;3631;42.152;24.756;2022-12-07T12:30:31;99270.19;;;12.00;100.00
7180;BME280;3631;42.152;24.756;2022-12-07T12:33:05;99258.75;;;12.04;100.00
7180;BME280;3631;42.152;24.756;2022-12-07T12:35:39;99252.22;;;11.94;100.00
7180;BME280;3631;42.152;24.756;2022-12-07T12:38:33;99251.88;;;12.03;100.00
7180;BME280;3631;42.152;24.756;2022-12-07T12:41:01;99246.56;;;12.06;100.00
7180;BME280;3631;42.152;24.756;2022-12-07T12:43:46;99239.16;;;12.17;100.00
7180;BME280;3631;42.152;24.756;2022-12-07T12:46:46;99239.34;;;12.13;100.00
7180;BME280;3631;42.152;24.756;2022-12-07T12:49:55;99244.06;;;12.03;100.00
7180;BME280;3631;42.152;24.756;2022-12-07T12:52:55;99239.81;;;12.00;100.00
7180;BME280;3631;42.152;24.756;2022-12-07T12:58:38;99244.41;;;11.94;100.00
7180;BME280;3631;42.152;24.756;2022-12-07T13:01:38;99244.16;;;12.00;100.00
7180;BME280;3631;42.152;24.756;2022-12-07T13:04:34;99237.94;;;12.04;100.00
7180;BME280;3631;42.152;24.756;2022-12-07T13:07:10;99231.84;;;12.05;100.00
7180;BME280;3631;42.152;24.756;2022-12-07T13:09:43;99229.88;;;12.10;100.00
7180;BME280;3631;42.152;24.756;2022-12-07T13:12:16;99223.47;;;11.97;100.00
7180;BME280;3631;42.152;24.756;2022-12-07T13:14:55;99226.59;;;12.07;100.00
7180;BME280;3631;42.152;24.756;2022-12-07T13:18:00;99226.88;;;11.99;100.00
7180;BME280;3631;42.152;24.756;2022-12-07T13:20:52;99234.03;;;11.94;100.00
7180;BME280;3631;42.152;24.756;2022-12-07T13:23:24;99235.94;;;11.89;100.00
7180;BME280;3631;42.152;24.756;2022-12-07T13:25:58;99233.03;;;11.96;100.00
7180;BME280;3631;42.152;24.756;2022-12-07T13:28:33;99236.72;;;11.91;100.00
7180;BME280;3631;42.152;24.756;2022-12-07T13:31:14;99241.03;;;11.92;100.00
7180;BME280;3631;42.152;24.756;2022-12-07T13:33:44;99242.03;;;11.88;100.00
7180;BME280;3631;42.152;24.756;2022-12-07T13:36:18;99246.38;;;11.87;100.00
7180;BME280;3631;42.152;24.756;2022-12-07T13:38:52;99234.53;;;11.80;100.00